sensor_id;sensor_type;location;lat;lon;timestamp;pressure;altitude;pressure_sealevel;temperature;humidity
65019;BME280;66069;51.164;-114.452;2023-01-04T00:00:36;86903.53;;;17.00;41.26
65019;BME280;66069;51.164;-114.452;2023-01-04T00:03:02;86901.53;;;17.04;41.47
65019;BME280;66069;51.164;-114.452;2023-01-04T00:05:28;86901.97;;;17.02;41.60
65019;BME280;66069;51.164;-114.452;2023-01-04T00:07:55;86910.78;;;17.12;41.46
65019;BME280;66069;51.164;-114.452;2023-01-04T00:10:21;86914.50;;;17.14;41.56
65019;BME280;66069;51.164;-114.452;2023-01-04T00:12:47;86915.25;;;17.15;41.75
65019;BME280;66069;51.164;-114.452;2023-01-04T00:15:14;86925.41;;;17.16;41.83
65019;BME280;66069;51.164;-114.452;2023-01-04T00:17:40;86932.50;;;17.19;41.72
65019;BME280;66069;51.164;-114.452;2023-01-04T00:20:06;86920.75;;;17.20;41.94
65019;BME280;66069;51.164;-114.452;2023-01-04T00:22:33;86912.91;;;17.17;41.85
65019;BME280;66069;51.164;-114.452;2023-01-04T00:24:59;86933.06;;;17.27;41.92
65019;BME280;66069;51.164;-114.452;2023-01-04T00:27:26;86930.41;;;17.27;41.84
65019;BME280;66069;51.164;-114.452;2023-01-04T00:29:52;86936.75;;;17.30;42.03
65019;BME280;66069;51.164;-114.452;2023-01-04T00:32:18;86925.19;;;17.23;41.87
65019;BME280;66069;51.164;-114.452;2023-01-04T00:34:44;86940.81;;;17.34;42.18
65019;BME280;66069;51.164;-114.452;2023-01-04T00:37:11;86947.59;;;17.35;42.23
65019;BME280;66069;51.164;-114.452;2023-01-04T00:39:37;86934.41;;;17.32;42.14
65019;BME280;66069;51.164;-114.452;2023-01-04T00:42:03;86943.97;;;17.42;42.24
65019;BME280;66069;51.164;-114.452;2023-01-04T00:44:31;86946.63;;;17.42;42.41
65019;BME280;66069;51.164;-114.452;2023-01-04T00:47:01;86955.22;;;17.46;42.44
65019;BME280;66069;51.164;-114.452;2023-01-04T00:49:28;86945.25;;;17.37;42.36
65019;BME280;66069;51.164;-114.452;2023-01-04T00:51:55;86954.81;;;17.47;42.21
65019;BME280;66069;51.164;-114.452;2023-01-04T00:54:22;86958.19;;;17.48;42.30
65019;BME280;66069;51.164;-114.452;2023-01-04T00:56:49;86961.59;;;17.48;42.24
65019;BME280;66069;51.164;-114.452;2023-01-04T00:59:18;86952.47;;;17.49;42.34
65019;BME280;66069;51.164;-114.452;2023-01-04T01:01:45;86942.06;;;17.42;42.26
65019;BME280;66069;51.164;-114.452;2023-01-04T01:04:13;86956.50;;;17.54;42.29
65019;BME280;66069;51.164;-114.452;2023-01-04T01:06:40;86957.75;;;17.49;42.17
65019;BME280;66069;51.164;-114.452;2023-01-04T01:09:07;86947.91;;;17.50;42.23
65019;BME280;66069;51.164;-114.452;2023-01-04T01:11:34;86951.72;;;17.49;42.28
65019;BME280;66069;51.164;-114.452;2023-01-04T01:14:05;86967.03;;;17.58;42.21
65019;BME280;66069;51.164;-114.452;2023-01-04T01:16:31;86967.31;;;17.60;42.17
65019;BME280;66069;51.164;-114.452;2023-01-04T01:18:58;86971.56;;;17.57;42.03
65019;BME280;66069;51.164;-114.452;2023-01-04T01:21:25;86975.28;;;17.60;42.06
65019;BME280;66069;51.164;-114.452;2023-01-04T01:23:54;86970.72;;;17.60;42.15
65019;BME280;66069;51.164;-114.452;2023-01-04T01:26:22;86979.72;;;17.63;42.23
65019;BME280;66069;51.164;-114.452;2023-01-04T01:28:49;86969.84;;;17.63;42.03
65019;BME280;66069;51.164;-114.452;2023-01-04T01:31:24;86964.69;;;17.60;42.24
65019;BME280;66069;51.164;-114.452;2023-01-04T01:33:53;86974.31;;;17.66;42.07
65019;BME280;66069;51.164;-114.452;2023-01-04T01:36:21;86975.50;;;17.65;41.99
65019;BME280;66069;51.164;-114.452;2023-01-04T01:38:48;86973.59;;;17.66;42.11
65019;BME280;66069;51.164;-114.452;2023-01-04T01:44:03;86983.03;;;17.67;42.14
65019;BME280;66069;51.164;-114.452;2023-01-04T01:46:46;86980.81;;;17.65;42.01
65019;BME280;66069;51.164;-114.452;2023-01-04T01:49:24;86978.56;;;17.64;42.11
65019;BME280;66069;51.164;-114.452;2023-01-04T01:51:55;86980.06;;;17.65;42.07
65019;BME280;66069;51.164;-114.452;2023-01-04T01:54:25;86988.00;;;17.65;41.99
65019;BME280;66069;51.164;-114.452;2023-01-04T01:56:57;86978.97;;;17.62;42.02
65019;BME280;66069;51.164;-114.452;2023-01-04T01:59:25;86985.03;;;17.63;41.94
65019;BME280;66069;51.164;-114.452;2023-01-04T02:01:52;86971.66;;;17.54;41.99
65019;BME280;66069;51.164;-114.452;2023-01-04T02:04:18;86991.50;;;17.62;41.91
65019;BME280;66069;51.164;-114.452;2023-01-04T02:06:51;86990.75;;;17.61;41.93
65019;BME280;66069;51.164;-114.452;2023-01-04T02:09:19;86964.31;;;17.45;41.83
65019;BME280;66069;51.164;-114.452;2023-01-04T02:11:46;86986.72;;;17.57;41.77
65019;BME280;66069;51.164;-114.452;2023-01-04T02:14:13;86984.81;;;17.57;41.88
65019;BME280;66069;51.164;-114.452;2023-01-04T02:16:59;87000.31;;;17.59;41.96
65019;BME280;66069;51.164;-114.452;2023-01-04T02:27:55;87013.56;;;17.59;41.76
65019;BME280;66069;51.164;-114.452;2023-01-04T02:33:15;87013.44;;;17.62;41.86
65019;BME280;66069;51.164;-114.452;2023-01-04T02:38:50;87018.31;;;17.64;41.97
65019;BME280;66069;51.164;-114.452;2023-01-04T02:41:37;87004.06;;;17.45;42.14
65019;BME280;66069;51.164;-114.452;2023-01-04T02:44:15;87018.50;;;17.57;42.22
65019;BME280;66069;51.164;-114.452;2023-01-04T02:47:10;87036.13;;;17.63;42.16
65019;BME280;66069;51.164;-114.452;2023-01-04T02:49:38;87025.31;;;17.58;42.14
65019;BME280;66069;51.164;-114.452;2023-01-04T02:52:22;87027.56;;;17.59;41.99
65019;BME280;66069;51.164;-114.452;2023-01-04T02:54:52;87029.03;;;17.60;42.06
65019;BME280;66069;51.164;-114.452;2023-01-04T03:03:35;87048.88;;;17.68;42.03
65019;BME280;66069;51.164;-114.452;2023-01-04T03:06:31;87053.75;;;17.70;42.23
65019;BME280;66069;51.164;-114.452;2023-01-04T03:09:11;87053.75;;;17.70;42.23
65019;BME280;66069;51.164;-114.452;2023-01-04T03:11:47;87051.84;;;17.70;42.30
65019;BME280;66069;51.164;-114.452;2023-01-04T03:14:38;87057.91;;;17.71;42.34
65019;BME280;66069;51.164;-114.452;2023-01-04T03:17:12;87053.69;;;17.73;42.18
65019;BME280;66069;51.164;-114.452;2023-01-04T03:19:40;87066.09;;;17.77;42.39
65019;BME280;66069;51.164;-114.452;2023-01-04T03:25:32;87065.16;;;17.83;42.44
65019;BME280;66069;51.164;-114.452;2023-01-04T03:28:20;87069.28;;;17.84;42.54
65019;BME280;66069;51.164;-114.452;2023-01-04T03:31:32;87075.66;;;17.87;42.65
65019;BME280;66069;51.164;-114.452;2023-01-04T03:34:19;87079.16;;;17.84;42.82
65019;BME280;66069;51.164;-114.452;2023-01-04T03:37:13;87075.56;;;17.90;42.79
65019;BME280;66069;51.164;-114.452;2023-01-04T03:45:34;87080.22;;;17.99;42.85
65019;BME280;66069;51.164;-114.452;2023-01-04T03:48:43;87062.75;;;17.89;42.68
65019;BME280;66069;51.164;-114.452;2023-01-04T03:51:14;87067.28;;;17.88;42.87
65019;BME280;66069;51.164;-114.452;2023-01-04T03:54:29;87084.72;;;18.02;42.71
65019;BME280;66069;51.164;-114.452;2023-01-04T03:56:38;87088.50;;;18.01;42.84
65019;BME280;66069;51.164;-114.452;2023-01-04T03:59:08;87094.16;;;18.03;42.83
65019;BME280;66069;51.164;-114.452;2023-01-04T04:01:35;87096.16;;;17.99;42.78
65019;BME280;66069;51.164;-114.452;2023-01-04T04:04:02;87100.84;;;18.08;42.82
65019;BME280;66069;51.164;-114.452;2023-01-04T04:06:47;87109.44;;;18.12;42.86
65019;BME280;66069;51.164;-114.452;2023-01-04T04:09:31;87105.06;;;18.05;42.80
65019;BME280;66069;51.164;-114.452;2023-01-04T04:11:58;87113.16;;;18.14;42.74
65019;BME280;66069;51.164;-114.452;2023-01-04T04:14:24;87119.59;;;18.13;42.85
65019;BME280;66069;51.164;-114.452;2023-01-04T04:16:50;87114.31;;;18.13;42.75
65019;BME280;66069;51.164;-114.452;2023-01-04T04:19:17;87128.66;;;18.16;42.83
65019;BME280;66069;51.164;-114.452;2023-01-04T04:21:43;87128.34;;;18.14;42.87
65019;BME280;66069;51.164;-114.452;2023-01-04T04:24:17;87135.00;;;18.18;42.81
65019;BME280;66069;51.164;-114.452;2023-01-04T04:26:44;87132.28;;;18.22;42.74
65019;BME280;66069;51.164;-114.452;2023-01-04T04:29:11;87131.97;;;18.20;42.70
65019;BME280;66069;51.164;-114.452;2023-01-04T04:31:37;87130.03;;;18.20;42.95
65019;BME280;66069;51.164;-114.452;2023-01-04T04:34:03;87135.66;;;18.22;42.55
65019;BME280;66069;51.164;-114.452;2023-01-04T04:36:29;87141.19;;;18.28;42.77
65019;BME280;66069;51.164;-114.452;2023-01-04T04:38:56;87131.84;;;18.23;42.68
65019;BME280;66069;51.164;-114.452;2023-01-04T04:41:22;87144.59;;;18.28;42.65
65019;BME280;66069;51.164;-114.452;2023-01-04T04:44:08;87144.59;;;18.28;42.83
65019;BME280;66069;51.164;-114.452;2023-01-04T04:46:36;87142.69;;;18.29;42.78
65019;BME280;66069;51.164;-114.452;2023-01-04T04:49:03;87157.44;;;18.30;42.73
65019;BME280;66069;51.164;-114.452;2023-01-04T04:51:29;87146.19;;;18.26;42.65
65019;BME280;66069;51.164;-114.452;2023-01-04T04:53:56;87154.78;;;18.30;42.71
65019;BME280;66069;51.164;-114.452;2023-01-04T04:56:22;87167.31;;;18.29;42.73
65019;BME280;66069;51.164;-114.452;2023-01-04T04:58:49;87165.38;;;18.30;42.60
65019;BME280;66069;51.164;-114.452;2023-01-04T05:01:15;87164.22;;;18.31;42.58
65019;BME280;66069;51.164;-114.452;2023-01-04T05:03:42;87166.56;;;18.29;42.65
65019;BME280;66069;51.164;-114.452;2023-01-04T05:06:08;87174.09;;;18.30;42.65
65019;BME280;66069;51.164;-114.452;2023-01-04T05:08:34;87176.75;;;18.30;42.71
65019;BME280;66069;51.164;-114.452;2023-01-04T05:11:05;87178.66;;;18.30;42.66
65019;BME280;66069;51.164;-114.452;2023-01-04T05:13:32;87166.84;;;18.18;42.48
65019;BME280;66069;51.164;-114.452;2023-01-04T05:16:00;87163.44;;;18.18;42.47
65019;BME280;66069;51.164;-114.452;2023-01-04T05:18:27;87190.13;;;18.27;42.33
65019;BME280;66069;51.164;-114.452;2023-01-04T05:20:53;87170.34;;;18.15;42.29
65019;BME280;66069;51.164;-114.452;2023-01-04T05:23:20;87192.88;;;18.23;42.25
65019;BME280;66069;51.164;-114.452;2023-01-04T05:25:52;87181.59;;;18.19;42.29
65019;BME280;66069;51.164;-114.452;2023-01-04T05:28:19;87184.38;;;18.16;42.10
65019;BME280;66069;51.164;-114.452;2023-01-04T05:30:47;87194.88;;;18.19;41.94
65019;BME280;66069;51.164;-114.452;2023-01-04T05:33:19;87192.63;;;18.18;42.01
65019;BME280;66069;51.164;-114.452;2023-01-04T05:35:45;87202.19;;;18.15;41.95
65019;BME280;66069;51.164;-114.452;2023-01-04T05:38:12;87182.50;;;18.00;42.02
65019;BME280;66069;51.164;-114.452;2023-01-04T05:40:39;87204.94;;;18.12;41.93
65019;BME280;66069;51.164;-114.452;2023-01-04T05:43:05;87205.66;;;18.12;41.91
65019;BME280;66069;51.164;-114.452;2023-01-04T05:45:32;87186.53;;;17.92;41.87
65019;BME280;66069;51.164;-114.452;2023-01-04T05:47:58;87207.69;;;18.08;41.91
65019;BME280;66069;51.164;-114.452;2023-01-04T05:50:25;87210.00;;;18.06;41.93
65019;BME280;66069;51.164;-114.452;2023-01-04T05:52:52;87211.16;;;18.05;41.82
65019;BME280;66069;51.164;-114.452;2023-01-04T05:55:19;87216.16;;;18.03;41.86
65019;BME280;66069;51.164;-114.452;2023-01-04T05:57:45;87224.53;;;18.01;41.84
65019;BME280;66069;51.164;-114.452;2023-01-04T06:00:13;87231.00;;;18.00;41.90
65019;BME280;66069;51.164;-114.452;2023-01-04T06:02:40;87228.75;;;17.99;41.92
65019;BME280;66069;51.164;-114.452;2023-01-04T06:05:07;87222.78;;;17.95;41.95
65019;BME280;66069;51.164;-114.452;2023-01-04T06:07:35;87231.28;;;17.90;41.74
65019;BME280;66069;51.164;-114.452;2023-01-04T06:10:02;87245.94;;;17.94;41.68
65019;BME280;66069;51.164;-114.452;2023-01-04T06:12:28;87241.47;;;17.91;41.77
65019;BME280;66069;51.164;-114.452;2023-01-04T06:14:55;87239.31;;;17.86;41.51
65019;BME280;66069;51.164;-114.452;2023-01-04T06:17:22;87231.88;;;17.81;41.81
65019;BME280;66069;51.164;-114.452;2023-01-04T06:19:48;87239.75;;;17.85;41.73
65019;BME280;66069;51.164;-114.452;2023-01-04T06:22:14;87250.25;;;17.88;41.75
65019;BME280;66069;51.164;-114.452;2023-01-04T06:24:41;87253.31;;;17.87;41.80
65019;BME280;66069;51.164;-114.452;2023-01-04T06:27:07;87253.00;;;17.85;41.61
65019;BME280;66069;51.164;-114.452;2023-01-04T06:29:34;87254.66;;;17.79;41.78
65019;BME280;66069;51.164;-114.452;2023-01-04T06:32:00;87258.38;;;17.81;41.65
65019;BME280;66069;51.164;-114.452;2023-01-04T06:34:29;87266.03;;;17.79;41.61
65019;BME280;66069;51.164;-114.452;2023-01-04T06:36:55;87263.78;;;17.78;41.68
65019;BME280;66069;51.164;-114.452;2023-01-04T06:39:22;87270.25;;;17.77;41.41
65019;BME280;66069;51.164;-114.452;2023-01-04T06:41:48;87264.44;;;17.65;41.60
65019;BME280;66069;51.164;-114.452;2023-01-04T06:44:14;87285.81;;;17.74;41.60
65019;BME280;66069;51.164;-114.452;2023-01-04T06:46:41;87285.56;;;17.69;41.55
65019;BME280;66069;51.164;-114.452;2023-01-04T06:49:07;87273.63;;;17.61;41.52
65019;BME280;66069;51.164;-114.452;2023-01-04T06:51:33;87249.88;;;17.41;41.60
65019;BME280;66069;51.164;-114.452;2023-01-04T06:54:00;87294.66;;;17.68;41.29
65019;BME280;66069;51.164;-114.452;2023-01-04T06:56:26;87292.88;;;17.65;41.56
65019;BME280;66069;51.164;-114.452;2023-01-04T06:58:52;87296.66;;;17.64;41.48
65019;BME280;66069;51.164;-114.452;2023-01-04T07:01:18;87301.94;;;17.64;41.43
65019;BME280;66069;51.164;-114.452;2023-01-04T07:03:45;87297.06;;;17.62;41.52
65019;BME280;66069;51.164;-114.452;2023-01-04T07:06:11;87265.94;;;17.34;41.60
65019;BME280;66069;51.164;-114.452;2023-01-04T07:08:37;87301.47;;;17.53;41.46
65019;BME280;66069;51.164;-114.452;2023-01-04T07:11:04;87310.81;;;17.57;41.46
65019;BME280;66069;51.164;-114.452;2023-01-04T07:13:30;87297.47;;;17.44;41.49
65019;BME280;66069;51.164;-114.452;2023-01-04T07:15:57;87311.72;;;17.50;41.46
65019;BME280;66069;51.164;-114.452;2023-01-04T07:18:23;87321.94;;;17.52;41.54
65019;BME280;66069;51.164;-114.452;2023-01-04T07:20:49;87330.28;;;17.50;41.40
65019;BME280;66069;51.164;-114.452;2023-01-04T07:23:16;87319.09;;;17.43;41.50
65019;BME280;66069;51.164;-114.452;2023-01-04T07:25:42;87324.66;;;17.48;41.46
65019;BME280;66069;51.164;-114.452;2023-01-04T07:28:08;87333.78;;;17.47;41.31
65019;BME280;66069;51.164;-114.452;2023-01-04T07:30:35;87326.97;;;17.46;41.36
65019;BME280;66069;51.164;-114.452;2023-01-04T07:33:01;87314.38;;;17.34;41.29
65019;BME280;66069;51.164;-114.452;2023-01-04T07:35:27;87314.13;;;17.29;41.20
65019;BME280;66069;51.164;-114.452;2023-01-04T07:37:54;87311.16;;;17.27;41.42
65019;BME280;66069;51.164;-114.452;2023-01-04T07:40:20;87337.75;;;17.39;41.27
65019;BME280;66069;51.164;-114.452;2023-01-04T07:42:54;87325.06;;;17.31;41.23
65019;BME280;66069;51.164;-114.452;2023-01-04T07:45:21;87324.72;;;17.29;41.32
65019;BME280;66069;51.164;-114.452;2023-01-04T07:47:48;87338.25;;;17.34;41.24
65019;BME280;66069;51.164;-114.452;2023-01-04T07:50:14;87340.88;;;17.34;41.36
65019;BME280;66069;51.164;-114.452;2023-01-04T07:52:40;87344.69;;;17.33;41.35
65019;BME280;66069;51.164;-114.452;2023-01-04T07:55:07;87341.09;;;17.23;41.39
65019;BME280;66069;51.164;-114.452;2023-01-04T07:57:33;87337.56;;;17.30;41.21
65019;BME280;66069;51.164;-114.452;2023-01-04T08:00:00;87338.13;;;17.21;41.24
65019;BME280;66069;51.164;-114.452;2023-01-04T08:02:26;87346.34;;;17.27;41.14
65019;BME280;66069;51.164;-114.452;2023-01-04T08:04:55;87343.34;;;17.25;41.29
65019;BME280;66069;51.164;-114.452;2023-01-04T08:07:21;87355.84;;;17.25;41.19
65019;BME280;66069;51.164;-114.452;2023-01-04T08:09:47;87345.41;;;17.17;41.14
65019;BME280;66069;51.164;-114.452;2023-01-04T08:12:14;87353.28;;;17.21;41.17
65019;BME280;66069;51.164;-114.452;2023-01-04T08:14:40;87357.06;;;17.20;41.23
65019;BME280;66069;51.164;-114.452;2023-01-04T08:17:06;87360.13;;;17.18;41.21
65019;BME280;66069;51.164;-114.452;2023-01-04T08:19:32;87354.94;;;17.15;41.13
65019;BME280;66069;51.164;-114.452;2023-01-04T08:21:59;87355.69;;;17.15;41.11
65019;BME280;66069;51.164;-114.452;2023-01-04T08:24:25;87351.19;;;17.12;41.25
65019;BME280;66069;51.164;-114.452;2023-01-04T08:26:52;87365.91;;;17.13;41.12
65019;BME280;66069;51.164;-114.452;2023-01-04T08:29:18;87349.09;;;17.04;41.13
65019;BME280;66069;51.164;-114.452;2023-01-04T08:31:44;87364.09;;;17.10;41.15
65019;BME280;66069;51.164;-114.452;2023-01-04T08:34:11;87365.25;;;17.09;41.22
65019;BME280;66069;51.164;-114.452;2023-01-04T08:36:47;87344.69;;;16.97;41.09
65019;BME280;66069;51.164;-114.452;2023-01-04T08:39:14;87355.16;;;17.04;41.08
65019;BME280;66069;51.164;-114.452;2023-01-04T08:41:40;87338.47;;;16.87;41.16
65019;BME280;66069;51.164;-114.452;2023-01-04T08:44:17;87323.47;;;16.81;41.03
65019;BME280;66069;51.164;-114.452;2023-01-04T08:46:44;87367.28;;;17.02;41.17
65019;BME280;66069;51.164;-114.452;2023-01-04T08:49:11;87359.16;;;16.92;41.15
65019;BME280;66069;51.164;-114.452;2023-01-04T08:51:38;87368.88;;;16.99;41.10
65019;BME280;66069;51.164;-114.452;2023-01-04T08:54:04;87374.56;;;16.98;41.13
65019;BME280;66069;51.164;-114.452;2023-01-04T08:56:31;87345.88;;;16.76;41.08
65019;BME280;66069;51.164;-114.452;2023-01-04T08:58:57;87381.41;;;16.95;41.00
65019;BME280;66069;51.164;-114.452;2023-01-04T09:01:23;87389.03;;;16.93;41.10
65019;BME280;66069;51.164;-114.452;2023-01-04T09:03:50;87389.44;;;16.91;41.02
65019;BME280;66069;51.164;-114.452;2023-01-04T09:06:16;87392.09;;;16.91;41.06
65019;BME280;66069;51.164;-114.452;2023-01-04T09:08:43;87397.06;;;16.89;40.98
65019;BME280;66069;51.164;-114.452;2023-01-04T09:11:14;87394.53;;;16.82;41.02
65019;BME280;66069;51.164;-114.452;2023-01-04T09:13:42;87402.84;;;16.84;41.12
65019;BME280;66069;51.164;-114.452;2023-01-04T09:16:11;87405.06;;;16.86;41.00
65019;BME280;66069;51.164;-114.452;2023-01-04T09:18:38;87404.38;;;16.82;41.05
65019;BME280;66069;51.164;-114.452;2023-01-04T09:21:09;87399.91;;;16.79;41.03
65019;BME280;66069;51.164;-114.452;2023-01-04T09:23:36;87416.88;;;16.81;41.14
65019;BME280;66069;51.164;-114.452;2023-01-04T09:26:15;87420.69;;;16.80;40.99
65019;BME280;66069;51.164;-114.452;2023-01-04T09:28:42;87421.84;;;16.79;41.06
65019;BME280;66069;51.164;-114.452;2023-01-04T09:31:17;87430.19;;;16.78;40.94
65019;BME280;66069;51.164;-114.452;2023-01-04T09:33:43;87434.84;;;16.70;40.98
65019;BME280;66069;51.164;-114.452;2023-01-04T09:36:13;87444.97;;;16.75;40.96
65019;BME280;66069;51.164;-114.452;2023-01-04T09:38:40;87446.19;;;16.71;40.83
65019;BME280;66069;51.164;-114.452;2023-01-04T09:43:53;87453.75;;;16.72;41.03
65019;BME280;66069;51.164;-114.452;2023-01-04T09:46:41;87445.44;;;16.70;41.06
65019;BME280;66069;51.164;-114.452;2023-01-04T09:49:28;87460.97;;;16.68;40.99
65019;BME280;66069;51.164;-114.452;2023-01-04T09:52:08;87467.41;;;16.67;41.01
65019;BME280;66069;51.164;-114.452;2023-01-04T09:54:43;87465.91;;;16.66;40.98
65019;BME280;66069;51.164;-114.452;2023-01-04T09:57:24;87438.72;;;16.42;41.00
65019;BME280;66069;51.164;-114.452;2023-01-04T10:00:03;87485.25;;;16.63;40.98
65019;BME280;66069;51.164;-114.452;2023-01-04T10:03:10;87484.91;;;16.61;40.82
65019;BME280;66069;51.164;-114.452;2023-01-04T10:05:36;87449.38;;;16.38;40.95
65019;BME280;66069;51.164;-114.452;2023-01-04T10:08:04;87482.38;;;16.54;40.83
65019;BME280;66069;51.164;-114.452;2023-01-04T10:13:26;87484.63;;;16.55;41.02
65019;BME280;66069;51.164;-114.452;2023-01-04T10:16:14;87475.59;;;16.53;40.89
65019;BME280;66069;51.164;-114.452;2023-01-04T10:18:49;87484.28;;;16.53;40.94
65019;BME280;66069;51.164;-114.452;2023-01-04T10:21:47;87482.03;;;16.52;40.83
65019;BME280;66069;51.164;-114.452;2023-01-04T10:27:06;87490.78;;;16.49;40.91
65019;BME280;66069;51.164;-114.452;2023-01-04T10:29:52;87491.94;;;16.48;41.02
65019;BME280;66069;51.164;-114.452;2023-01-04T10:33:28;87492.34;;;16.46;40.84
65019;BME280;66069;51.164;-114.452;2023-01-04T10:35:47;87499.19;;;16.43;40.85
65019;BME280;66069;51.164;-114.452;2023-01-04T10:38:17;87493.13;;;16.43;40.84
65019;BME280;66069;51.164;-114.452;2023-01-04T10:40:47;87487.69;;;16.30;40.90
65019;BME280;66069;51.164;-114.452;2023-01-04T10:46:19;87507.56;;;16.38;40.94
65019;BME280;66069;51.164;-114.452;2023-01-04T10:48:58;87519.31;;;16.37;40.78
65019;BME280;66069;51.164;-114.452;2023-01-04T10:59:46;87509.94;;;16.33;40.80
65019;BME280;66069;51.164;-114.452;2023-01-04T11:02:32;87504.44;;;16.20;40.85
65019;BME280;66069;51.164;-114.452;2023-01-04T11:05:18;87528.09;;;16.31;40.98
65019;BME280;66069;51.164;-114.452;2023-01-04T11:10:36;87527.03;;;16.28;40.84
65019;BME280;66069;51.164;-114.452;2023-01-04T11:13:05;87507.97;;;16.13;40.77
65019;BME280;66069;51.164;-114.452;2023-01-04T11:15:31;87521.84;;;16.21;40.86
65019;BME280;66069;51.164;-114.452;2023-01-04T11:18:00;87533.50;;;16.24;40.88
65019;BME280;66069;51.164;-114.452;2023-01-04T11:20:29;87515.56;;;16.11;40.72
65019;BME280;66069;51.164;-114.452;2023-01-04T11:23:06;87514.47;;;16.09;40.99
65019;BME280;66069;51.164;-114.452;2023-01-04T11:25:46;87534.28;;;16.21;40.93
65019;BME280;66069;51.164;-114.452;2023-01-04T11:31:29;87546.44;;;16.18;40.94
65019;BME280;66069;51.164;-114.452;2023-01-04T11:34:02;87542.28;;;16.17;40.73
65019;BME280;66069;51.164;-114.452;2023-01-04T11:36:43;87551.38;;;16.16;40.80
65019;BME280;66069;51.164;-114.452;2023-01-04T11:39:20;87547.25;;;16.15;40.80
65019;BME280;66069;51.164;-114.452;2023-01-04T11:42:01;87548.78;;;16.12;40.99
65019;BME280;66069;51.164;-114.452;2023-01-04T11:44:32;87563.91;;;16.12;40.72
65019;BME280;66069;51.164;-114.452;2023-01-04T11:47:21;87568.44;;;16.11;40.83
65019;BME280;66069;51.164;-114.452;2023-01-04T11:49:50;87565.09;;;16.07;40.91
65019;BME280;66069;51.164;-114.452;2023-01-04T11:54:54;87574.19;;;16.06;40.84
65019;BME280;66069;51.164;-114.452;2023-01-04T11:57:20;87575.00;;;16.03;40.95
65019;BME280;66069;51.164;-114.452;2023-01-04T12:00:06;87577.63;;;16.03;40.92
65019;BME280;66069;51.164;-114.452;2023-01-04T12:02:33;87573.47;;;16.02;41.00
65019;BME280;66069;51.164;-114.452;2023-01-04T12:05:00;87581.41;;;16.02;41.04
65019;BME280;66069;51.164;-114.452;2023-01-04T12:07:30;87582.56;;;16.01;40.98
65019;BME280;66069;51.164;-114.452;2023-01-04T12:10:00;87590.88;;;16.00;40.98
65019;BME280;66069;51.164;-114.452;2023-01-04T12:12:30;87574.78;;;15.91;40.65
65019;BME280;66069;51.164;-114.452;2023-01-04T12:15:01;87591.28;;;15.98;40.80
65019;BME280;66069;51.164;-114.452;2023-01-04T12:17:51;87595.47;;;15.96;40.81
65019;BME280;66069;51.164;-114.452;2023-01-04T12:20:20;87604.19;;;15.96;40.85
65019;BME280;66069;51.164;-114.452;2023-01-04T12:22:49;87605.34;;;15.92;40.88
65019;BME280;66069;51.164;-114.452;2023-01-04T12:25:27;87617.03;;;15.94;40.88
65019;BME280;66069;51.164;-114.452;2023-01-04T12:27:56;87609.50;;;15.93;40.92
65019;BME280;66069;51.164;-114.452;2023-01-04T12:39:00;87610.34;;;15.86;40.95
65019;BME280;66069;51.164;-114.452;2023-01-04T12:44:00;87614.47;;;15.87;40.80
65019;BME280;66069;51.164;-114.452;2023-01-04T12:54:48;87627.16;;;15.99;40.98
65019;BME280;66069;51.164;-114.452;2023-01-04T12:57:21;87640.69;;;16.05;40.83
65019;BME280;66069;51.164;-114.452;2023-01-04T13:02:30;87640.16;;;16.17;41.27
65019;BME280;66069;51.164;-114.452;2023-01-04T13:05:02;87651.06;;;16.23;41.48
65019;BME280;66069;51.164;-114.452;2023-01-04T13:07:41;87644.91;;;16.29;41.35
65019;BME280;66069;51.164;-114.452;2023-01-04T13:10:42;87648.22;;;16.37;41.59
65019;BME280;66069;51.164;-114.452;2023-01-04T13:20:56;87651.69;;;16.57;41.94
65019;BME280;66069;51.164;-114.452;2023-01-04T13:23:24;87664.38;;;16.73;41.91
65019;BME280;66069;51.164;-114.452;2023-01-04T13:25:51;87672.19;;;16.80;42.15
65019;BME280;66069;51.164;-114.452;2023-01-04T13:28:18;87676.22;;;16.88;42.05
65019;BME280;66069;51.164;-114.452;2023-01-04T13:30:45;87654.13;;;16.75;42.14
65019;BME280;66069;51.164;-114.452;2023-01-04T13:33:17;87674.91;;;17.00;42.12
65019;BME280;66069;51.164;-114.452;2023-01-04T13:36:07;87678.31;;;17.01;42.17
65019;BME280;66069;51.164;-114.452;2023-01-04T13:38:34;87695.50;;;17.16;42.24
65019;BME280;66069;51.164;-114.452;2023-01-04T13:41:04;87696.53;;;17.22;42.36
65019;BME280;66069;51.164;-114.452;2023-01-04T13:44:09;87698.00;;;17.27;42.28
65019;BME280;66069;51.164;-114.452;2023-01-04T13:46:40;87695.97;;;17.34;42.38
65019;BME280;66069;51.164;-114.452;2023-01-04T13:49:13;87702.69;;;17.39;42.42
65019;BME280;66069;51.164;-114.452;2023-01-04T13:51:41;87693.91;;;17.45;42.16
65019;BME280;66069;51.164;-114.452;2023-01-04T13:54:22;87711.47;;;17.59;42.31
65019;BME280;66069;51.164;-114.452;2023-01-04T13:56:49;87715.13;;;17.65;42.31
65019;BME280;66069;51.164;-114.452;2023-01-04T13:59:17;87707.47;;;17.71;42.40
65019;BME280;66069;51.164;-114.452;2023-01-04T14:01:46;87688.25;;;17.63;42.24
65019;BME280;66069;51.164;-114.452;2023-01-04T14:04:27;87722.75;;;17.87;42.38
65019;BME280;66069;51.164;-114.452;2023-01-04T14:06:58;87713.16;;;17.93;42.31
65019;BME280;66069;51.164;-114.452;2023-01-04T14:09:28;87709.28;;;17.97;42.24
65019;BME280;66069;51.164;-114.452;2023-01-04T14:11:58;87720.59;;;18.01;42.21
65019;BME280;66069;51.164;-114.452;2023-01-04T14:16:50;87720.38;;;18.12;42.25
65019;BME280;66069;51.164;-114.452;2023-01-04T14:19:48;87733.91;;;18.18;42.11
65019;BME280;66069;51.164;-114.452;2023-01-04T14:28:26;87746.53;;;18.34;41.92